sensor_id;sensor_type;location;lat;lon;timestamp;pressure;altitude;pressure_sealevel;temperature;humidity
23953;BME280;12163;49.316;6.092;2023-02-12T00:02:01;101522.09;;;7.56;78.73
23953;BME280;12163;49.316;6.092;2023-02-12T00:04:28;101510.53;;;7.56;79.10
23953;BME280;12163;49.316;6.092;2023-02-12T00:06:55;101512.59;;;7.54;78.98
23953;BME280;12163;49.316;6.092;2023-02-12T00:09:21;101511.19;;;7.51;78.87
23953;BME280;12163;49.316;6.092;2023-02-12T00:11:48;101506.03;;;7.50;78.90
23953;BME280;12163;49.316;6.092;2023-02-12T00:14:14;101506.03;;;7.50;78.85
23953;BME280;12163;49.316;6.092;2023-02-12T00:16:41;101507.91;;;7.49;78.70
23953;BME280;12163;49.316;6.092;2023-02-12T00:19:08;101511.41;;;7.50;78.73
23953;BME280;12163;49.316;6.092;2023-02-12T00:21:35;101494.91;;;7.46;78.78
23953;BME280;12163;49.316;6.092;2023-02-12T00:24:02;101501.53;;;7.44;79.08
23953;BME280;12163;49.316;6.092;2023-02-12T00:26:28;101499.88;;;7.43;78.81
23953;BME280;12163;49.316;6.092;2023-02-12T00:28:55;101491.22;;;7.41;78.90
23953;BME280;12163;49.316;6.092;2023-02-12T00:31:24;101494.94;;;7.40;78.97
23953;BME280;12163;49.316;6.092;2023-02-12T00:33:51;101498.69;;;7.39;79.23
23953;BME280;12163;49.316;6.092;2023-02-12T00:36:20;101497.84;;;7.38;79.04
23953;BME280;12163;49.316;6.092;2023-02-12T00:38:47;101493.75;;;7.36;79.07
23953;BME280;12163;49.316;6.092;2023-02-12T00:41:14;101493.75;;;7.36;78.98
23953;BME280;12163;49.316;6.092;2023-02-12T00:43:41;101494.56;;;7.36;78.70
23953;BME280;12163;49.316;6.092;2023-02-12T00:46:08;101489.19;;;7.36;78.71
23953;BME280;12163;49.316;6.092;2023-02-12T00:48:35;101490.00;;;7.37;79.11
23953;BME280;12163;49.316;6.092;2023-02-12T00:51:03;101495.38;;;7.37;79.02
23953;BME280;12163;49.316;6.092;2023-02-12T00:53:30;101488.38;;;7.36;78.67
23953;BME280;12163;49.316;6.092;2023-02-12T00:55:57;101489.19;;;7.36;78.63
23953;BME280;12163;49.316;6.092;2023-02-12T00:58:24;101492.09;;;7.35;78.85
23953;BME280;12163;49.316;6.092;2023-02-12T01:00:52;101501.19;;;7.34;78.54
23953;BME280;12163;49.316;6.092;2023-02-12T01:03:19;101490.06;;;7.30;78.72
23953;BME280;12163;49.316;6.092;2023-02-12T01:05:46;101494.59;;;7.30;78.92
23953;BME280;12163;49.316;6.092;2023-02-12T01:08:14;101490.25;;;7.29;79.30
23953;BME280;12163;49.316;6.092;2023-02-12T01:10:42;101500.78;;;7.30;79.05
23953;BME280;12163;49.316;6.092;2023-02-12T01:13:13;101495.63;;;7.29;78.81
23953;BME280;12163;49.316;6.092;2023-02-12T01:15:41;101493.78;;;7.29;79.16
23953;BME280;12163;49.316;6.092;2023-02-12T01:18:08;101489.22;;;7.30;78.71
23953;BME280;12163;49.316;6.092;2023-02-12T01:20:34;101486.75;;;7.28;78.80
23953;BME280;12163;49.316;6.092;2023-02-12T01:23:01;101493.38;;;7.26;78.59
23953;BME280;12163;49.316;6.092;2023-02-12T01:25:28;101481.44;;;7.22;79.03
23953;BME280;12163;49.316;6.092;2023-02-12T01:27:54;101481.63;;;7.20;79.17
23953;BME280;12163;49.316;6.092;2023-02-12T01:30:21;101486.00;;;7.21;79.07
23953;BME280;12163;49.316;6.092;2023-02-12T01:32:49;101482.69;;;7.19;79.22
23953;BME280;12163;49.316;6.092;2023-02-12T01:35:16;101484.75;;;7.17;78.98
23953;BME280;12163;49.316;6.092;2023-02-12T01:37:43;101488.28;;;7.18;79.10
23953;BME280;12163;49.316;6.092;2023-02-12T01:40:11;101490.97;;;7.18;78.81
23953;BME280;12163;49.316;6.092;2023-02-12T01:42:40;101491.78;;;7.18;79.25
23953;BME280;12163;49.316;6.092;2023-02-12T01:47:40;101487.84;;;7.21;79.33
23953;BME280;12163;49.316;6.092;2023-02-12T01:50:10;101490.53;;;7.21;78.97
23953;BME280;12163;49.316;6.092;2023-02-12T01:52:41;101487.25;;;7.19;79.02
23953;BME280;12163;49.316;6.092;2023-02-12T01:55:09;101479.38;;;7.17;79.30
23953;BME280;12163;49.316;6.092;2023-02-12T01:57:40;101478.59;;;7.17;79.12
23953;BME280;12163;49.316;6.092;2023-02-12T02:00:12;101487.25;;;7.19;79.68
23953;BME280;12163;49.316;6.092;2023-02-12T02:02:40;101480.25;;;7.11;78.93
23953;BME280;12163;49.316;6.092;2023-02-12T02:05:08;101482.31;;;7.16;79.36
23953;BME280;12163;49.316;6.092;2023-02-12T02:07:35;101483.94;;;7.17;79.44
23953;BME280;12163;49.316;6.092;2023-02-12T02:10:01;101481.03;;;7.18;79.24
23953;BME280;12163;49.316;6.092;2023-02-12T02:12:29;101478.94;;;7.20;79.47
23953;BME280;12163;49.316;6.092;2023-02-12T02:15:14;101481.88;;;7.19;79.09
23953;BME280;12163;49.316;6.092;2023-02-12T02:18:10;101484.38;;;7.14;78.99
23953;BME280;12163;49.316;6.092;2023-02-12T02:32:27;101474.50;;;7.08;79.45
23953;BME280;12163;49.316;6.092;2023-02-12T02:35:09;101462.72;;;7.09;79.71
23953;BME280;12163;49.316;6.092;2023-02-12T02:37:48;101460.47;;;7.06;79.27
23953;BME280;12163;49.316;6.092;2023-02-12T02:40:18;101469.13;;;7.08;79.76
23953;BME280;12163;49.316;6.092;2023-02-12T02:42:54;101462.53;;;7.04;79.55
23953;BME280;12163;49.316;6.092;2023-02-12T02:48:07;101456.56;;;7.02;79.77
23953;BME280;12163;49.316;6.092;2023-02-12T02:50:37;101453.44;;;7.05;79.98
23953;BME280;12163;49.316;6.092;2023-02-12T02:53:10;101461.72;;;7.03;79.92
23953;BME280;12163;49.316;6.092;2023-02-12T02:55:53;101458.22;;;7.03;79.79
23953;BME280;12163;49.316;6.092;2023-02-12T02:58:25;101466.06;;;7.04;79.78
23953;BME280;12163;49.316;6.092;2023-02-12T03:01:00;101462.53;;;7.04;80.11
23953;BME280;12163;49.316;6.092;2023-02-12T03:03:58;101461.50;;;7.05;79.91
23953;BME280;12163;49.316;6.092;2023-02-12T03:06:30;101453.00;;;7.08;80.34
23953;BME280;12163;49.316;6.092;2023-02-12T03:09:03;101454.25;;;7.12;80.18
23953;BME280;12163;49.316;6.092;2023-02-12T03:11:32;101457.53;;;7.14;79.95
23953;BME280;12163;49.316;6.092;2023-02-12T03:14:08;101455.91;;;7.13;80.30
23953;BME280;12163;49.316;6.092;2023-02-12T03:16:59;101452.81;;;7.09;79.80
23953;BME280;12163;49.316;6.092;2023-02-12T03:19:38;101452.59;;;7.11;79.60
23953;BME280;12163;49.316;6.092;2023-02-12T03:22:10;101450.72;;;7.11;79.84
23953;BME280;12163;49.316;6.092;2023-02-12T03:24:43;101446.41;;;7.10;80.34
23953;BME280;12163;49.316;6.092;2023-02-12T03:29:48;101450.53;;;7.13;79.95
23953;BME280;12163;49.316;6.092;2023-02-12T03:32:29;101436.50;;;7.11;79.48
23953;BME280;12163;49.316;6.092;2023-02-12T03:35:37;101447.03;;;7.06;79.98
23953;BME280;12163;49.316;6.092;2023-02-12T03:38:14;101445.56;;;7.10;79.63
23953;BME280;12163;49.316;6.092;2023-02-12T03:40:59;101449.28;;;7.09;79.99
23953;BME280;12163;49.316;6.092;2023-02-12T03:43:58;101448.03;;;7.11;79.96
23953;BME280;12163;49.316;6.092;2023-02-12T03:46:44;101440.81;;;7.12;79.59
23953;BME280;12163;49.316;6.092;2023-02-12T03:49:26;101436.06;;;7.14;79.78
23953;BME280;12163;49.316;6.092;2023-02-12T03:51:54;101439.78;;;7.13;79.78
23953;BME280;12163;49.316;6.092;2023-02-12T03:54:23;101436.06;;;7.14;79.55
23953;BME280;12163;49.316;6.092;2023-02-12T03:57:00;101440.00;;;7.11;79.92
23953;BME280;12163;49.316;6.092;2023-02-12T03:59:28;101438.94;;;7.12;80.04
23953;BME280;12163;49.316;6.092;2023-02-12T04:01:57;101436.50;;;7.11;79.45
23953;BME280;12163;49.316;6.092;2023-02-12T04:04:25;101445.34;;;7.11;79.57
23953;BME280;12163;49.316;6.092;2023-02-12T04:06:53;101434.41;;;7.13;79.85
23953;BME280;12163;49.316;6.092;2023-02-12T04:09:21;101435.22;;;7.13;79.51
23953;BME280;12163;49.316;6.092;2023-02-12T04:14:40;101437.94;;;7.07;79.57
23953;BME280;12163;49.316;6.092;2023-02-12T04:20:10;101448.09;;;7.05;79.53
23953;BME280;12163;49.316;6.092;2023-02-12T04:34:10;101444.19;;;7.01;79.80
23953;BME280;12163;49.316;6.092;2023-02-12T04:36:40;101436.16;;;6.94;79.49
23953;BME280;12163;49.316;6.092;2023-02-12T04:39:11;101439.09;;;6.93;79.51
23953;BME280;12163;49.316;6.092;2023-02-12T04:41:40;101444.41;;;6.99;79.13
23953;BME280;12163;49.316;6.092;2023-02-12T04:44:18;101444.41;;;6.99;79.50
23953;BME280;12163;49.316;6.092;2023-02-12T04:46:47;101452.03;;;7.02;79.78
23953;BME280;12163;49.316;6.092;2023-02-12T04:49:16;101447.28;;;7.04;79.49
23953;BME280;12163;49.316;6.092;2023-02-12T04:51:44;101444.59;;;7.04;79.61
23953;BME280;12163;49.316;6.092;2023-02-12T04:54:12;101448.09;;;7.05;79.17
23953;BME280;12163;49.316;6.092;2023-02-12T04:56:40;101454.28;;;7.05;79.63
23953;BME280;12163;49.316;6.092;2023-02-12T04:59:06;101442.50;;;7.06;79.74
23953;BME280;12163;49.316;6.092;2023-02-12T05:01:34;101450.56;;;7.06;79.39
23953;BME280;12163;49.316;6.092;2023-02-12T05:04:01;101446.00;;;7.07;79.29
23953;BME280;12163;49.316;6.092;2023-02-12T05:06:29;101447.25;;;7.11;79.38
23953;BME280;12163;49.316;6.092;2023-02-12T05:08:56;101446.41;;;7.10;79.55
23953;BME280;12163;49.316;6.092;2023-02-12T05:11:23;101446.41;;;7.10;79.18
23953;BME280;12163;49.316;6.092;2023-02-12T05:13:50;101446.19;;;7.12;79.15
23953;BME280;12163;49.316;6.092;2023-02-12T05:16:19;101440.81;;;7.12;79.09
23953;BME280;12163;49.316;6.092;2023-02-12T05:18:47;101447.25;;;7.11;79.17
23953;BME280;12163;49.316;6.092;2023-02-12T05:21:13;101448.03;;;7.11;79.40
23953;BME280;12163;49.316;6.092;2023-02-12T05:23:40;101445.56;;;7.10;79.03
23953;BME280;12163;49.316;6.092;2023-02-12T05:26:11;101444.56;;;7.11;79.40
23953;BME280;12163;49.316;6.092;2023-02-12T05:28:38;101445.56;;;7.10;79.30
23953;BME280;12163;49.316;6.092;2023-02-12T05:31:07;101441.88;;;7.11;79.49
23953;BME280;12163;49.316;6.092;2023-02-12T05:33:34;101443.50;;;7.12;79.29
23953;BME280;12163;49.316;6.092;2023-02-12T05:36:05;101454.84;;;7.14;79.64
23953;BME280;12163;49.316;6.092;2023-02-12T05:38:33;101457.09;;;7.17;79.17
23953;BME280;12163;49.316;6.092;2023-02-12T05:41:03;101463.28;;;7.17;79.54
23953;BME280;12163;49.316;6.092;2023-02-12T05:43:30;101458.75;;;7.18;79.40
23953;BME280;12163;49.316;6.092;2023-02-12T05:45:59;101450.69;;;7.18;79.24
23953;BME280;12163;49.316;6.092;2023-02-12T05:48:26;101456.06;;;7.18;79.19
23953;BME280;12163;49.316;6.092;2023-02-12T05:50:54;101462.47;;;7.17;79.09
23953;BME280;12163;49.316;6.092;2023-02-12T05:53:20;101450.47;;;7.19;79.19
23953;BME280;12163;49.316;6.092;2023-02-12T05:55:47;101454.75;;;7.27;79.62
23953;BME280;12163;49.316;6.092;2023-02-12T05:58:13;101460.91;;;7.83;80.08
23953;BME280;12163;49.316;6.092;2023-02-12T06:00:41;101452.00;;;8.60;78.65
23953;BME280;12163;49.316;6.092;2023-02-12T06:03:08;101448.31;;;9.02;77.11
23953;BME280;12163;49.316;6.092;2023-02-12T06:05:34;101453.72;;;9.43;75.70
23953;BME280;12163;49.316;6.092;2023-02-12T06:08:01;101447.66;;;9.59;73.82
23953;BME280;12163;49.316;6.092;2023-02-12T06:10:27;101443.28;;;9.47;72.82
23953;BME280;12163;49.316;6.092;2023-02-12T06:12:54;101454.47;;;9.21;72.67
23953;BME280;12163;49.316;6.092;2023-02-12T06:15:21;101457.91;;;8.98;72.88
23953;BME280;12163;49.316;6.092;2023-02-12T06:17:47;101456.31;;;8.79;73.46
23953;BME280;12163;49.316;6.092;2023-02-12T06:20:14;101452.59;;;8.62;73.51
23953;BME280;12163;49.316;6.092;2023-02-12T06:22:41;101457.44;;;8.54;73.71
23953;BME280;12163;49.316;6.092;2023-02-12T06:25:07;101452.16;;;8.47;73.51
23953;BME280;12163;49.316;6.092;2023-02-12T06:27:34;101453.06;;;8.41;73.88
23953;BME280;12163;49.316;6.092;2023-02-12T06:30:00;101455.00;;;8.34;73.80
23953;BME280;12163;49.316;6.092;2023-02-12T06:32:27;101454.28;;;8.28;74.04
23953;BME280;12163;49.316;6.092;2023-02-12T06:34:54;101457.66;;;8.17;74.20
23953;BME280;12163;49.316;6.092;2023-02-12T06:37:20;101454.28;;;8.03;74.10
23953;BME280;12163;49.316;6.092;2023-02-12T06:39:47;101456.44;;;7.95;75.00
23953;BME280;12163;49.316;6.092;2023-02-12T06:42:13;101457.53;;;7.87;74.91
23953;BME280;12163;49.316;6.092;2023-02-12T06:44:40;101460.00;;;8.13;75.61
23953;BME280;12163;49.316;6.092;2023-02-12T06:47:07;101457.75;;;8.64;75.19
23953;BME280;12163;49.316;6.092;2023-02-12T06:49:33;101458.97;;;8.97;74.17
23953;BME280;12163;49.316;6.092;2023-02-12T06:52:00;101455.75;;;9.18;73.47
23953;BME280;12163;49.316;6.092;2023-02-12T06:54:28;101452.78;;;9.49;73.49
23953;BME280;12163;49.316;6.092;2023-02-12T06:56:55;101446.13;;;9.98;72.64
23953;BME280;12163;49.316;6.092;2023-02-12T06:59:22;101456.53;;;10.40;71.14
23953;BME280;12163;49.316;6.092;2023-02-12T07:01:48;101446.38;;;10.70;69.53
23953;BME280;12163;49.316;6.092;2023-02-12T07:04:15;101445.94;;;10.89;68.92
23953;BME280;12163;49.316;6.092;2023-02-12T07:06:42;101453.66;;;10.97;67.24
23953;BME280;12163;49.316;6.092;2023-02-12T07:09:08;101454.03;;;10.61;66.59
23953;BME280;12163;49.316;6.092;2023-02-12T07:11:36;101457.06;;;10.14;67.13
23953;BME280;12163;49.316;6.092;2023-02-12T07:14:03;101461.72;;;9.73;68.21
23953;BME280;12163;49.316;6.092;2023-02-12T07:16:30;101468.13;;;9.49;68.49
23953;BME280;12163;49.316;6.092;2023-02-12T07:18:57;101465.59;;;9.24;69.39
23953;BME280;12163;49.316;6.092;2023-02-12T07:21:23;101461.19;;;9.00;69.81
23953;BME280;12163;49.316;6.092;2023-02-12T07:23:51;101471.41;;;8.80;70.38
23953;BME280;12163;49.316;6.092;2023-02-12T07:26:19;101470.38;;;8.63;71.29
23953;BME280;12163;49.316;6.092;2023-02-12T07:28:46;101474.06;;;8.51;72.04
23953;BME280;12163;49.316;6.092;2023-02-12T07:31:19;101477.25;;;8.41;72.05
23953;BME280;12163;49.316;6.092;2023-02-12T07:33:46;101480.47;;;8.32;72.45
23953;BME280;12163;49.316;6.092;2023-02-12T07:36:16;101472.94;;;8.23;72.71
23953;BME280;12163;49.316;6.092;2023-02-12T07:38:43;101474.25;;;8.14;73.42
23953;BME280;12163;49.316;6.092;2023-02-12T07:41:13;101476.19;;;8.07;73.45
23953;BME280;12163;49.316;6.092;2023-02-12T07:43:42;101470.66;;;8.02;73.79
23953;BME280;12163;49.316;6.092;2023-02-12T07:46:17;101474.38;;;8.01;74.31
23953;BME280;12163;49.316;6.092;2023-02-12T07:48:45;101486.19;;;8.00;74.36
23953;BME280;12163;49.316;6.092;2023-02-12T07:51:14;101477.06;;;8.01;74.57
23953;BME280;12163;49.316;6.092;2023-02-12T07:53:41;101471.06;;;7.99;74.85
23953;BME280;12163;49.316;6.092;2023-02-12T07:56:10;101486.19;;;8.00;75.03
23953;BME280;12163;49.316;6.092;2023-02-12T07:58:37;101484.31;;;8.00;74.81
23953;BME280;12163;49.316;6.092;2023-02-12T08:01:21;101487.44;;;7.97;74.92
23953;BME280;12163;49.316;6.092;2023-02-12T08:03:49;101482.66;;;7.99;75.00
23953;BME280;12163;49.316;6.092;2023-02-12T08:08:50;101489.88;;;7.99;75.31
23953;BME280;12163;49.316;6.092;2023-02-12T08:11:17;101486.78;;;8.02;75.28
23953;BME280;12163;49.316;6.092;2023-02-12T08:13:44;101489.47;;;8.02;75.22
23953;BME280;12163;49.316;6.092;2023-02-12T08:16:14;101491.13;;;8.03;75.31
23953;BME280;12163;49.316;6.092;2023-02-12T08:18:41;101482.22;;;8.02;75.08
23953;BME280;12163;49.316;6.092;2023-02-12T08:21:22;101476.44;;;7.99;75.13
23953;BME280;12163;49.316;6.092;2023-02-12T08:23:49;101486.59;;;7.97;75.20
23953;BME280;12163;49.316;6.092;2023-02-12T08:26:24;101482.88;;;7.98;75.41
23953;BME280;12163;49.316;6.092;2023-02-12T08:28:57;101489.47;;;8.02;75.20
23953;BME280;12163;49.316;6.092;2023-02-12T08:31:28;101480.72;;;8.06;75.41
23953;BME280;12163;49.316;6.092;2023-02-12T08:33:56;101482.53;;;8.12;75.41
23953;BME280;12163;49.316;6.092;2023-02-12T08:36:25;101479.41;;;8.15;75.41
23953;BME280;12163;49.316;6.092;2023-02-12T08:38:53;101479.38;;;8.22;75.05
23953;BME280;12163;49.316;6.092;2023-02-12T08:41:22;101480.13;;;8.29;74.93
23953;BME280;12163;49.316;6.092;2023-02-12T08:43:51;101480.84;;;8.35;75.10
23953;BME280;12163;49.316;6.092;2023-02-12T08:46:23;101482.44;;;8.43;74.67
23953;BME280;12163;49.316;6.092;2023-02-12T08:49:04;101486.56;;;8.45;74.60
23953;BME280;12163;49.316;6.092;2023-02-12T08:51:33;101476.53;;;8.52;74.51
23953;BME280;12163;49.316;6.092;2023-02-12T08:54:03;101475.63;;;8.58;74.47
23953;BME280;12163;49.316;6.092;2023-02-12T08:56:31;101475.16;;;8.61;73.98
23953;BME280;12163;49.316;6.092;2023-02-12T08:59:00;101471.22;;;8.64;73.79
23953;BME280;12163;49.316;6.092;2023-02-12T09:01:29;101472.19;;;8.69;74.17
23953;BME280;12163;49.316;6.092;2023-02-12T09:03:56;101464.25;;;8.74;73.59
23953;BME280;12163;49.316;6.092;2023-02-12T09:06:24;101468.72;;;8.80;73.66
23953;BME280;12163;49.316;6.092;2023-02-12T09:08:52;101467.81;;;8.86;73.60
23953;BME280;12163;49.316;6.092;2023-02-12T09:11:24;101461.06;;;8.95;73.55
23953;BME280;12163;49.316;6.092;2023-02-12T09:13:59;101468.00;;;9.03;73.27
23953;BME280;12163;49.316;6.092;2023-02-12T09:16:28;101461.47;;;9.10;72.86
23953;BME280;12163;49.316;6.092;2023-02-12T09:18:55;101475.66;;;9.17;72.68
23953;BME280;12163;49.316;6.092;2023-02-12T09:21:22;101465.13;;;9.27;72.50
23953;BME280;12163;49.316;6.092;2023-02-12T09:23:49;101460.03;;;9.37;72.29
23953;BME280;12163;49.316;6.092;2023-02-12T09:26:19;101462.75;;;9.49;71.84
23953;BME280;12163;49.316;6.092;2023-02-12T09:28:47;101463.81;;;9.59;71.68
23953;BME280;12163;49.316;6.092;2023-02-12T09:31:18;101455.97;;;9.69;71.42
23953;BME280;12163;49.316;6.092;2023-02-12T09:33:46;101456.22;;;9.79;71.09
23953;BME280;12163;49.316;6.092;2023-02-12T09:36:17;101466.19;;;9.90;70.62
23953;BME280;12163;49.316;6.092;2023-02-12T09:38:44;101456.69;;;9.99;70.40
23953;BME280;12163;49.316;6.092;2023-02-12T09:43:46;101449.06;;;10.19;69.87
23953;BME280;12163;49.316;6.092;2023-02-12T09:49:03;101456.22;;;10.25;69.09
23953;BME280;12163;49.316;6.092;2023-02-12T09:51:33;101456.91;;;10.32;69.04
23953;BME280;12163;49.316;6.092;2023-02-12T09:54:13;101443.03;;;10.40;68.79
23953;BME280;12163;49.316;6.092;2023-02-12T09:56:44;101459.38;;;10.45;68.33
23953;BME280;12163;49.316;6.092;2023-02-12T09:59:27;101442.56;;;10.43;68.10
23953;BME280;12163;49.316;6.092;2023-02-12T10:01:56;101441.75;;;10.42;68.56
23953;BME280;12163;49.316;6.092;2023-02-12T10:04:23;101444.78;;;10.57;68.19
23953;BME280;12163;49.316;6.092;2023-02-12T10:07:02;101443.56;;;10.65;67.70
23953;BME280;12163;49.316;6.092;2023-02-12T10:09:48;101441.06;;;10.75;67.91
23953;BME280;12163;49.316;6.092;2023-02-12T10:12:36;101449.97;;;10.75;67.47
23953;BME280;12163;49.316;6.092;2023-02-12T10:17:50;101429.06;;;10.82;66.76
23953;BME280;12163;49.316;6.092;2023-02-12T10:26:23;101437.91;;;10.78;66.68
23953;BME280;12163;49.316;6.092;2023-02-12T10:28:51;101436.91;;;10.84;66.94
23953;BME280;12163;49.316;6.092;2023-02-12T10:31:25;101446.44;;;10.86;66.98
23953;BME280;12163;49.316;6.092;2023-02-12T10:33:55;101444.44;;;10.82;66.72
23953;BME280;12163;49.316;6.092;2023-02-12T10:36:44;101445.50;;;10.81;66.60
23953;BME280;12163;49.316;6.092;2023-02-12T10:39:21;101444.34;;;10.77;66.98
23953;BME280;12163;49.316;6.092;2023-02-12T10:42:00;101444.75;;;10.69;67.04
23953;BME280;12163;49.316;6.092;2023-02-12T10:44:29;101449.56;;;10.67;67.48
23953;BME280;12163;49.316;6.092;2023-02-12T10:46:56;101443.09;;;10.68;67.28
23953;BME280;12163;49.316;6.092;2023-02-12T10:49:23;101449.09;;;10.70;67.24
23953;BME280;12163;49.316;6.092;2023-02-12T10:52:14;101441.91;;;10.64;67.65
23953;BME280;12163;49.316;6.092;2023-02-12T10:54:45;101437.84;;;10.61;67.34
23953;BME280;12163;49.316;6.092;2023-02-12T10:57:23;101432.09;;;10.58;67.68
23953;BME280;12163;49.316;6.092;2023-02-12T10:59:53;101436.69;;;10.57;67.35
23953;BME280;12163;49.316;6.092;2023-02-12T11:02:29;101432.56;;;10.55;67.99
23953;BME280;12163;49.316;6.092;2023-02-12T11:04:57;101430.94;;;10.54;68.05
23953;BME280;12163;49.316;6.092;2023-02-12T11:07:26;101423.31;;;10.51;67.70
23953;BME280;12163;49.316;6.092;2023-02-12T11:09:55;101424.69;;;10.53;67.83
23953;BME280;12163;49.316;6.092;2023-02-12T11:12:27;101427.16;;;10.55;67.82
23953;BME280;12163;49.316;6.092;2023-02-12T11:15:02;101426.69;;;10.58;67.93
23953;BME280;12163;49.316;6.092;2023-02-12T11:17:35;101414.13;;;10.63;67.99
23953;BME280;12163;49.316;6.092;2023-02-12T11:23:02;101402.84;;;10.66;67.80
23953;BME280;12163;49.316;6.092;2023-02-12T11:25:34;101410.72;;;10.68;68.41
23953;BME280;12163;49.316;6.092;2023-02-12T11:28:16;101402.84;;;10.66;68.13
23953;BME280;12163;49.316;6.092;2023-02-12T11:33:20;101404.88;;;10.59;67.93
23953;BME280;12163;49.316;6.092;2023-02-12T11:35:53;101403.06;;;10.65;68.16
23953;BME280;12163;49.316;6.092;2023-02-12T11:38:24;101403.41;;;10.68;67.32
23953;BME280;12163;49.316;6.092;2023-02-12T11:40:57;101403.19;;;10.70;67.55
23953;BME280;12163;49.316;6.092;2023-02-12T11:43:26;101403.19;;;10.70;67.51
23953;BME280;12163;49.316;6.092;2023-02-12T11:45:54;101400.72;;;10.68;67.38
23953;BME280;12163;49.316;6.092;2023-02-12T11:48:32;101407.88;;;10.63;66.89
23953;BME280;12163;49.316;6.092;2023-02-12T11:51:02;101404.13;;;10.64;66.67
23953;BME280;12163;49.316;6.092;2023-02-12T11:53:32;101403.81;;;10.60;67.11
23953;BME280;12163;49.316;6.092;2023-02-12T11:56:03;101396.50;;;10.61;67.45
23953;BME280;12163;49.316;6.092;2023-02-12T11:58:30;101400.38;;;10.65;67.63
23953;BME280;12163;49.316;6.092;2023-02-12T12:17:12;101399.59;;;10.53;67.31
23953;BME280;12163;49.316;6.092;2023-02-12T12:23:10;101388.56;;;10.54;66.95
23953;BME280;12163;49.316;6.092;2023-02-12T12:25:46;101394.19;;;10.53;66.82
23953;BME280;12163;49.316;6.092;2023-02-12T12:33:45;101392.06;;;10.55;66.73
23953;BME280;12163;49.316;6.092;2023-02-12T12:38:45;101385.63;;;10.56;66.88
23953;BME280;12163;49.316;6.092;2023-02-12T12:43:55;101392.31;;;10.53;67.48
23953;BME280;12163;49.316;6.092;2023-02-12T12:46:30;101382.13;;;10.55;67.77
23953;BME280;12163;49.316;6.092;2023-02-12T12:49:22;101385.03;;;10.54;67.16
23953;BME280;12163;49.316;6.092;2023-02-12T12:54:54;101380.69;;;10.53;67.35
23953;BME280;12163;49.316;6.092;2023-02-12T12:57:51;101374.97;;;10.49;67.20
23953;BME280;12163;49.316;6.092;2023-02-12T13:03:58;101372.59;;;10.53;67.41
23953;BME280;12163;49.316;6.092;2023-02-12T13:06:55;101381.66;;;10.47;67.07
23953;BME280;12163;49.316;6.092;2023-02-12T13:15:27;101363.53;;;10.59;66.94
23953;BME280;12163;49.316;6.092;2023-02-12T13:23:54;101358.13;;;10.59;66.98
23953;BME280;12163;49.316;6.092;2023-02-12T13:29:12;101357.66;;;10.62;66.76
23953;BME280;12163;49.316;6.092;2023-02-12T13:31:54;101359.88;;;10.65;67.12
23953;BME280;12163;49.316;6.092;2023-02-12T13:34:23;101362.41;;;10.71;66.81
23953;BME280;12163;49.316;6.092;2023-02-12T13:36:54;101362.75;;;10.75;66.44
23953;BME280;12163;49.316;6.092;2023-02-12T13:42:19;101356.06;;;10.77;66.69
23953;BME280;12163;49.316;6.092;2023-02-12T13:50:26;101348.97;;;10.88;65.93
23953;BME280;12163;49.316;6.092;2023-02-12T13:53:14;101343.81;;;10.86;65.99
23953;BME280;12163;49.316;6.092;2023-02-12T14:03:33;101343.16;;;10.96;65.57
23953;BME280;12163;49.316;6.092;2023-02-12T14:08:41;101343.25;;;11.01;65.82
23953;BME280;12163;49.316;6.092;2023-02-12T14:11:11;101339.72;;;11.00;65.27
23953;BME280;12163;49.316;6.092;2023-02-12T14:14:05;101343.16;;;10.96;65.67
23953;BME280;12163;49.316;6.092;2023-02-12T14:21:43;101335.72;;;11.03;65.30
23953;BME280;12163;49.316;6.092;2023-02-12T14:27:13;101336.19;;;11.00;64.93
23953;BME280;12163;49.316;6.092;2023-02-12T14:40:43;101332.69;;;10.99;65.42
23953;BME280;12163;49.316;6.092;2023-02-12T14:48:55;101327.69;;;11.08;65.08
23953;BME280;12163;49.316;6.092;2023-02-12T14:51:35;101322.84;;;11.10;64.61
23953;BME280;12163;49.316;6.092;2023-02-12T14:54:04;101320.75;;;11.12;64.87
23953;BME280;12163;49.316;6.092;2023-02-12T14:56:45;101319.69;;;11.13;64.45
23953;BME280;12163;49.316;6.092;2023-02-12T14:59:18;101315.41;;;11.17;65.11
23953;BME280;12163;49.316;6.092;2023-02-12T15:01:47;101311.16;;;11.21;65.10
23953;BME280;12163;49.316;6.092;2023-02-12T15:04:25;101309.28;;;11.21;64.88
23953;BME280;12163;49.316;6.092;2023-02-12T15:07:00;101306.31;;;11.23;64.55
23953;BME280;12163;49.316;6.092;2023-02-12T15:09:46;101302.22;;;11.20;64.97
23953;BME280;12163;49.316;6.092;2023-02-12T15:12:21;101299.03;;;11.23;64.73
23953;BME280;12163;49.316;6.092;2023-02-12T15:15:03;101304.69;;;11.22;64.91
23953;BME280;12163;49.316;6.092;2023-02-12T15:17:33;101304.69;;;11.22;65.00
23953;BME280;12163;49.316;6.092;2023-02-12T15:20:18;101301.41;;;11.20;64.80
23953;BME280;12163;49.316;6.092;2023-02-12T15:22:46;101299.78;;;11.19;64.62
23953;BME280;12163;49.316;6.092;2023-02-12T15:25:26;101300.00;;;11.17;64.85
23953;BME280;12163;49.316;6.092;2023-02-12T15:28:03;101296.66;;;11.10;64.78
23953;BME280;12163;49.316;6.092;2023-02-12T15:30:34;101293.97;;;11.10;65.09
23953;BME280;12163;49.316;6.092;2023-02-12T15:33:04;101296.44;;;11.12;64.37
23953;BME280;12163;49.316;6.092;2023-02-12T15:35:34;101298.28;;;11.11;64.69
23953;BME280;12163;49.316;6.092;2023-02-12T15:38:02;101292.56;;;11.08;64.58
23953;BME280;12163;49.316;6.092;2023-02-12T15:40:30;101300.09;;;11.06;64.65
23953;BME280;12163;49.316;6.092;2023-02-12T15:45:28;101300.66;;;11.08;64.70
23953;BME280;12163;49.316;6.092;2023-02-12T15:50:30;101299.44;;;10.99;65.02
23953;BME280;12163;49.316;6.092;2023-02-12T15:52:58;101293.69;;;10.95;64.99
23953;BME280;12163;49.316;6.092;2023-02-12T15:55:27;101291.75;;;10.91;65.21
23953;BME280;12163;49.316;6.092;2023-02-12T15:57:58;101292.72;;;10.85;65.43